Time;durP1;ratioP1;P1;durP2;ratioP2;P2;SDS_P1;SDS_P2;PMS_P1;PMS_P2;Temp;Humidity;BMP_temperature;BMP_pressure;BME280_temperature;BME280_humidity;BME280_pressure;Samples;Min_cycle;Max_cycle;Signal;HPM_P1;HPM_P2
2024/04/01 00:01:41;;;;;;;;;;;12.30;99.90;;;12.84;66.91;98284.00;5080052;28;19973;-82
2024/04/01 00:04:08;;;;;;;;;;;12.40;99.90;;;12.82;66.99;98283.47;5079698;28;19924;-81
2024/04/01 00:06:35;;;;;;;;;;;12.40;99.90;;;12.81;66.93;98281.88;5078219;28;19924;-81
2024/04/01 00:09:02;;;;;;;;;;;12.30;99.90;;;12.78;67.16;98277.06;5045141;28;19925;-82
2024/04/01 00:11:28;;;;;;;;;;;12.30;99.90;;;12.72;66.99;98275.53;5079916;28;19931;-82
2024/04/01 00:13:56;;;;;;;;;;;12.20;99.90;;;12.71;67.15;98275.81;5077580;28;20046;-81
2024/04/01 00:16:23;;;;;;;;;;;12.20;99.90;;;12.71;67.18;98284.63;5079036;28;19959;-82
2024/04/01 00:18:50;;;;;;;;;;;12.20;99.90;;;12.69;67.33;98284.13;5079727;28;19925;-82
2024/04/01 00:21:17;;;;;;;;;;;12.20;99.90;;;12.71;67.62;98273.13;5061570;28;20462;-82
2024/04/01 00:23:46;;;;;;;;;;;12.20;99.90;;;12.69;67.54;98270.75;5079506;28;19979;-81
2024/04/01 00:26:12;;;;;;;;;;;12.20;99.90;;;12.66;67.41;98268.63;5077437;28;19960;-81
2024/04/01 00:28:39;;;;;;;;;;;12.20;99.90;;;12.70;67.41;98263.53;5079308;28;19925;-81
2024/04/01 00:31:05;;;;;;;;;;;12.20;99.90;;;12.71;67.35;98265.91;5077647;28;19974;-82
2024/04/01 00:33:34;;;;;;;;;;;12.20;99.90;;;12.59;65.97;98250.22;5077108;28;19931;-81
2024/04/01 00:36:00;;;;;;;;;;;12.20;99.90;;;12.63;66.45;98245.91;5060951;28;19966;-81
2024/04/01 00:38:27;;;;;;;;;;;12.30;99.90;;;12.65;66.47;98231.47;5078506;28;19924;-82
2024/04/01 00:40:54;;;;;;;;;;;12.20;99.90;;;12.67;66.96;98223.97;5077630;28;19928;-81
2024/04/01 00:43:21;;;;;;;;;;;12.30;99.90;;;12.66;66.84;98220.50;5077892;28;19929;-82
2024/04/01 00:45:49;;;;;;;;;;;12.30;99.90;;;12.69;67.13;98211.91;5077479;28;20011;-81
2024/04/01 00:48:16;;;;;;;;;;;12.30;99.90;;;12.71;67.02;98216.97;5079625;28;19931;-82
2024/04/01 00:50:47;;;;;;;;;;;12.30;99.90;;;12.69;66.42;98216.44;5060972;28;19926;-82
2024/04/01 00:53:14;;;;;;;;;;;12.30;99.90;;;12.70;66.65;98229.56;5079175;28;19936;-81
2024/04/01 00:55:43;;;;;;;;;;;12.30;99.90;;;12.73;67.07;98231.66;5077668;28;20454;-81
2024/04/01 00:58:10;;;;;;;;;;;12.40;99.90;;;12.75;67.27;98228.72;5078533;28;19978;-81
2024/04/01 01:00:37;;;;;;;;;;;12.30;99.90;;;12.76;67.18;98232.97;5076671;28;19963;-81
2024/04/01 01:03:04;;;;;;;;;;;12.40;99.90;;;12.77;67.03;98229.22;5061011;28;19946;-82
2024/04/01 01:05:33;;;;;;;;;;;12.40;99.90;;;12.76;67.13;98231.09;5076945;28;19925;-82
2024/04/01 01:08:01;;;;;;;;;;;12.30;99.90;;;12.78;67.18;98231.59;5077048;28;19925;-82
2024/04/01 01:10:30;;;;;;;;;;;12.30;99.90;;;12.75;66.66;98234.84;5076915;28;19932;-82
2024/04/01 01:12:56;;;;;;;;;;;12.30;99.90;;;12.76;67.13;98243.69;5077167;28;20030;-81
2024/04/01 01:15:25;;;;;;;;;;;12.40;99.90;;;12.79;67.04;98230.56;5078764;28;19924;-81
2024/04/01 01:17:51;;;;;;;;;;;12.30;99.90;;;12.78;66.92;98226.25;5077128;28;19928;-81
2024/04/01 01:20:19;;;;;;;;;;;12.40;99.90;;;12.80;66.80;98228.66;5076761;28;19985;-81
2024/04/01 01:22:46;;;;;;;;;;;12.30;99.90;;;12.78;66.95;98231.59;5043405;28;19928;-82
2024/04/01 01:25:13;;;;;;;;;;;12.30;99.90;;;12.77;67.19;98226.53;5077952;28;20422;-81
2024/04/01 01:27:41;;;;;;;;;;;12.30;99.90;;;12.77;67.12;98222.00;5076745;28;19959;-81
2024/04/01 01:30:15;;;;;;;;;;;12.30;99.90;;;12.77;66.87;98227.34;5059840;28;19955;-82
2024/04/01 01:32:47;;;;;;;;;;;12.30;99.90;;;12.77;66.88;98218.53;5078141;28;19988;-82
2024/04/01 01:35:20;;;;;;;;;;;12.30;99.90;;;12.76;66.93;98214.25;5076895;28;19982;-81
2024/04/01 01:37:47;;;;;;;;;;;12.30;99.90;;;12.75;67.05;98218.00;5060216;28;19924;-81
2024/04/01 01:40:15;;;;;;;;;;;12.30;99.90;;;12.73;66.96;98212.94;5078050;28;19925;-82
2024/04/01 01:42:41;;;;;;;;;;;12.30;99.90;;;12.71;66.65;98209.75;5059978;28;19925;-82
2024/04/01 01:45:09;;;;;;;;;;;12.30;99.90;;;12.69;66.65;98209.25;5075940;28;19924;-82
2024/04/01 01:47:36;;;;;;;;;;;12.20;99.90;;;12.72;66.85;98191.81;5076008;28;20012;-82
2024/04/01 01:50:05;;;;;;;;;;;12.30;99.90;;;12.73;66.96;98202.22;5076051;28;19931;-82
2024/04/01 01:52:32;;;;;;;;;;;12.30;99.90;;;12.73;66.99;98191.53;5076349;28;19954;-82
2024/04/01 01:55:01;;;;;;;;;;;12.30;99.90;;;12.72;66.77;98187.25;5075730;28;19947;-82
2024/04/01 01:57:27;;;;;;;;;;;12.30;99.90;;;12.72;66.73;98181.91;5077380;28;19925;-82
2024/04/01 01:59:55;;;;;;;;;;;12.30;99.90;;;12.72;66.78;98179.25;5059091;28;20327;-82
2024/04/01 02:02:21;;;;;;;;;;;12.30;99.90;;;12.72;66.49;98168.53;5076823;28;19924;-82
2024/04/01 02:04:49;;;;;;;;;;;12.30;99.90;;;12.73;66.75;98175.47;5058840;28;19924;-82
2024/04/01 02:07:15;;;;;;;;;;;12.30;99.90;;;12.73;66.72;98162.09;5075731;28;20022;-82
2024/04/01 02:09:42;;;;;;;;;;;12.30;99.90;;;12.72;66.83;98167.75;5075340;28;20384;-82
2024/04/01 02:12:10;;;;;;;;;;;12.20;99.90;;;12.69;66.92;98155.75;5076693;28;20007;-82
2024/04/01 02:14:38;;;;;;;;;;;12.20;99.90;;;12.67;66.74;98155.22;5076129;28;19925;-82
2024/04/01 02:17:04;;;;;;;;;;;12.20;99.90;;;12.67;66.93;98154.44;5075110;28;19925;-82
2024/04/01 02:19:32;;;;;;;;;;;12.20;99.90;;;12.65;66.97;98159.28;5076625;28;19947;-82
2024/04/01 02:21:58;;;;;;;;;;;12.20;99.90;;;12.62;67.20;98150.72;5077488;28;19924;-82
2024/04/01 02:24:25;;;;;;;;;;;12.20;99.90;;;12.62;67.42;98147.25;5075554;28;19931;-82
2024/04/01 02:26:52;;;;;;;;;;;12.10;99.90;;;12.60;67.32;98146.75;5077059;28;20031;-82
2024/04/01 02:29:21;;;;;;;;;;;12.10;99.90;;;12.58;67.50;98141.66;5075323;28;19993;-82
2024/04/01 02:31:47;;;;;;;;;;;12.10;99.90;;;12.56;67.54;98138.47;5075503;28;20359;-82
2024/04/01 02:34:14;;;;;;;;;;;12.10;99.90;;;12.55;67.61;98146.78;5075702;28;20356;-82
2024/04/01 02:36:40;;;;;;;;;;;12.00;99.90;;;12.51;67.68;98149.22;5058488;28;19963;-82
2024/04/01 02:39:16;;;;;;;;;;;12.00;99.90;;;12.52;67.76;98155.34;5076583;28;19924;-82
2024/04/01 02:41:42;;;;;;;;;;;12.00;99.90;;;12.51;67.79;98151.09;5075182;28;19967;-82
2024/04/01 02:44:10;;;;;;;;;;;12.00;99.90;;;12.50;67.76;98147.63;5077007;28;19978;-82
2024/04/01 02:46:39;;;;;;;;;;;12.00;99.90;;;12.48;67.70;98151.66;5077208;28;19924;-82
2024/04/01 02:49:06;;;;;;;;;;;12.00;99.90;;;12.48;67.80;98148.97;5076224;28;20345;-82
2024/04/01 02:51:32;;;;;;;;;;;12.00;99.90;;;12.48;67.73;98154.31;5058647;28;19924;-82
2024/04/01 02:53:59;;;;;;;;;;;12.00;99.90;;;12.46;67.83;98164.50;5075122;28;19931;-82
2024/04/01 02:56:26;;;;;;;;;;;12.00;99.90;;;12.45;67.73;98165.59;5075194;28;19929;-82
2024/04/01 02:58:53;;;;;;;;;;;11.90;99.90;;;12.43;67.77;98165.84;5074516;28;19931;-81
2024/04/01 03:01:19;;;;;;;;;;;11.90;99.90;;;12.42;67.57;98168.81;5076941;28;20022;-82
2024/04/01 03:03:49;;;;;;;;;;;11.90;99.90;;;12.38;67.76;98166.69;5076479;28;19929;-82
2024/04/01 03:06:15;;;;;;;;;;;11.90;99.90;;;12.36;67.68;98168.06;5076992;28;19928;-82
2024/04/01 03:08:43;;;;;;;;;;;11.90;99.90;;;12.31;67.94;98158.22;5075709;28;20319;-82
2024/04/01 03:11:09;;;;;;;;;;;11.80;99.90;;;12.29;68.03;98151.53;5074814;28;19931;-82
2024/04/01 03:13:37;;;;;;;;;;;11.80;99.90;;;12.26;68.10;98144.88;5074938;28;20391;-82
2024/04/01 03:16:05;;;;;;;;;;;11.80;99.90;;;12.23;68.09;98141.97;5075452;28;19931;-82
2024/04/01 03:18:33;;;;;;;;;;;11.80;99.90;;;12.20;68.05;98140.66;5058786;28;19931;-82
2024/04/01 03:21:00;;;;;;;;;;;11.70;99.90;;;12.18;68.19;98131.31;5076157;28;20425;-82
2024/04/01 03:23:28;;;;;;;;;;;11.70;99.90;;;12.16;68.10;98128.94;5024894;28;20401;-82
2024/04/01 03:25:54;;;;;;;;;;;11.70;99.90;;;12.15;68.08;98132.69;5078664;28;19947;-82
2024/04/01 03:28:21;;;;;;;;;;;11.60;99.90;;;12.14;68.20;98131.06;5078943;28;19924;-82
2024/04/01 03:30:48;;;;;;;;;;;11.70;99.90;;;12.15;68.17;98121.16;5080160;28;20418;-82
2024/04/01 03:33:16;;;;;;;;;;;11.70;99.90;;;12.16;68.18;98128.94;5079027;28;19924;-82
2024/04/01 03:35:42;;;;;;;;;;;11.70;99.90;;;12.13;68.09;98124.13;5080186;28;19932;-82
2024/04/01 03:38:11;;;;;;;;;;;11.60;99.90;;;12.10;68.28;98120.16;5078478;28;19932;-82
2024/04/01 03:40:39;;;;;;;;;;;11.60;99.90;;;12.09;68.20;98115.06;5079647;28;20365;-82
2024/04/01 03:43:07;;;;;;;;;;;11.60;99.90;;;12.06;68.53;98108.44;5078724;28;19942;-82
2024/04/01 03:45:36;;;;;;;;;;;11.60;99.90;;;12.07;68.40;98115.38;5077880;28;20212;-82
2024/04/01 03:48:03;;;;;;;;;;;11.60;99.90;;;12.08;68.30;98110.81;5061910;28;20026;-82
2024/04/01 03:50:30;;;;;;;;;;;11.60;99.90;;;12.09;68.31;98104.38;5078332;28;19929;-82
2024/04/01 03:52:56;;;;;;;;;;;11.60;99.90;;;12.06;68.51;98118.31;5079496;28;19964;-82
2024/04/01 03:55:25;;;;;;;;;;;11.60;99.90;;;12.06;68.33;98112.97;5077829;28;19931;-82
2024/04/01 03:57:51;;;;;;;;;;;11.60;99.90;;;12.07;68.49;98114.56;5079665;28;19924;-82
2024/04/01 04:00:19;;;;;;;;;;;11.60;99.90;;;12.07;68.31;98110.03;5077878;28;19924;-82
2024/04/01 04:02:45;;;;;;;;;;;11.60;99.90;;;12.08;68.29;98110.81;5078814;28;20375;-82
2024/04/01 04:05:12;;;;;;;;;;;11.60;99.90;;;12.08;68.52;98103.59;5078131;28;19956;-82
2024/04/01 04:07:39;;;;;;;;;;;11.60;99.90;;;12.07;68.58;98111.91;5079263;28;19970;-82
2024/04/01 04:10:06;;;;;;;;;;;11.60;99.90;;;12.04;68.65;98113.25;5079403;28;19925;-82
2024/04/01 04:12:34;;;;;;;;;;;11.60;99.90;;;12.04;68.65;98125.81;5079105;28;19924;-82
2024/04/01 04:15:03;;;;;;;;;;;11.60;99.90;;;12.01;68.85;98113.03;5077892;28;20362;-81
2024/04/01 04:17:29;;;;;;;;;;;11.60;99.90;;;12.01;69.11;98110.34;5077802;28;19964;-82
2024/04/01 04:19:56;;;;;;;;;;;11.60;99.90;;;11.98;69.24;98114.34;5078321;28;19924;-82
2024/04/01 04:22:22;;;;;;;;;;;11.50;99.90;;;11.98;69.16;98116.22;5078394;28;19924;-82
2024/04/01 04:24:50;;;;;;;;;;;11.50;99.90;;;11.95;69.20;98119.44;5079176;28;19925;-82
2024/04/01 04:27:16;;;;;;;;;;;11.50;99.90;;;11.95;69.39;98125.59;5079308;28;19932;-82
2024/04/01 04:29:45;;;;;;;;;;;11.50;99.90;;;11.95;69.01;98124.78;5078979;28;19932;-82
2024/04/01 04:32:12;;;;;;;;;;;11.50;99.90;;;11.97;69.10;98114.66;5079598;28;19946;-82
2024/04/01 04:34:39;;;;;;;;;;;11.50;99.90;;;11.97;69.06;98126.13;5078546;28;19924;-82
2024/04/01 04:37:06;;;;;;;;;;;11.50;99.90;;;11.98;69.13;98126.91;5061090;28;19928;-82
2024/04/01 04:39:36;;;;;;;;;;;11.50;99.90;;;11.97;69.19;98111.97;5079003;28;20348;-82
2024/04/01 04:42:03;;;;;;;;;;;11.50;99.90;;;11.93;69.07;98114.41;5077658;28;19924;-82
2024/04/01 04:44:31;;;;;;;;;;;11.50;99.90;;;11.94;69.17;98128.53;5044361;28;19924;-82
2024/04/01 04:46:58;;;;;;;;;;;11.50;99.90;;;11.94;69.24;98126.66;5079548;28;19936;-82
2024/04/01 04:49:28;;;;;;;;;;;11.50;99.90;;;11.94;69.11;98131.22;5077794;28;19931;-82
2024/04/01 04:51:55;;;;;;;;;;;11.50;99.90;;;11.93;69.02;98127.75;5078998;28;19924;-82
2024/04/01 04:54:22;;;;;;;;;;;11.50;99.90;;;11.92;69.52;98128.84;5060424;28;20521;-82
2024/04/01 04:56:48;;;;;;;;;;;11.50;99.90;;;11.91;69.27;98132.59;5061106;28;19924;-82
2024/04/01 04:59:17;;;;;;;;;;;11.50;99.90;;;11.91;69.57;98131.75;5077158;28;20435;-82
2024/04/01 05:01:44;;;;;;;;;;;11.50;99.90;;;11.88;69.74;98132.34;5061212;28;20403;-82
2024/04/01 05:04:12;;;;;;;;;;;11.50;99.90;;;11.87;69.77;98136.09;5078342;28;19925;-82
2024/04/01 05:06:39;;;;;;;;;;;11.50;99.90;;;11.86;69.99;98143.31;5077380;28;19924;-82
2024/04/01 05:09:08;;;;;;;;;;;11.50;99.90;;;11.85;70.19;98141.69;5077319;28;19956;-82
2024/04/01 05:11:36;;;;;;;;;;;11.50;99.90;;;11.86;70.22;98143.31;5078302;28;19925;-82
2024/04/01 05:14:03;;;;;;;;;;;11.50;99.90;;;11.88;70.39;98149.16;5078539;28;19928;-82
2024/04/01 05:16:30;;;;;;;;;;;11.50;99.90;;;11.85;70.58;98147.81;5079157;28;20322;-82
2024/04/01 05:18:56;;;;;;;;;;;11.50;99.90;;;11.86;70.75;98156.66;5076996;28;19971;-82
2024/04/01 05:21:25;;;;;;;;;;;11.50;99.90;;;11.87;70.83;98154.78;5078409;28;19924;-82
2024/04/01 05:23:52;;;;;;;;;;;11.50;99.90;;;11.88;71.04;98161.72;5078570;28;19978;-82
2024/04/01 05:26:20;;;;;;;;;;;11.50;99.90;;;11.90;71.24;98167.56;5078873;28;20374;-82
2024/04/01 05:28:46;;;;;;;;;;;11.50;99.90;;;11.87;71.42;98170.81;5076862;28;19932;-82
2024/04/01 05:31:13;;;;;;;;;;;11.50;99.90;;;11.88;71.94;98172.41;5076682;28;19932;-82
2024/04/01 05:33:40;;;;;;;;;;;11.50;99.90;;;11.88;71.77;98181.19;5078480;28;19970;-82
2024/04/01 05:36:08;;;;;;;;;;;11.50;99.90;;;11.85;71.67;98182.53;5059812;28;20023;-82
2024/04/01 05:38:35;;;;;;;;;;;11.40;99.90;;;11.82;71.80;98183.09;5078137;28;19974;-82
2024/04/01 05:41:02;;;;;;;;;;;11.40;99.90;;;11.83;71.66;98190.03;5077709;28;20402;-82
2024/04/01 05:43:28;;;;;;;;;;;11.40;99.90;;;11.85;71.67;98192.44;5076729;28;19931;-80
2024/04/01 05:45:56;;;;;;;;;;;11.40;99.90;;;11.85;71.59;98193.22;5074788;28;20326;-81
2024/04/01 05:48:22;;;;;;;;;;;11.40;99.90;;;11.87;71.54;98197.50;5076647;28;19974;-81
2024/04/01 05:50:50;;;;;;;;;;;11.50;99.90;;;11.84;71.71;98194.31;5076051;28;20015;-80
2024/04/01 05:53:17;;;;;;;;;;;11.50;99.90;;;11.84;71.75;98196.19;5058560;28;19929;-80
2024/04/01 05:55:46;;;;;;;;;;;11.50;99.90;;;11.83;71.78;98203.41;5076736;28;19925;-80
2024/04/01 05:58:12;;;;;;;;;;;11.40;99.90;;;11.85;71.74;98206.56;5059003;28;20371;-80
2024/04/01 06:00:39;;;;;;;;;;;11.50;99.90;;;11.84;71.66;98196.97;5076735;28;19931;-80
2024/04/01 06:03:06;;;;;;;;;;;11.50;99.90;;;11.84;71.74;98207.66;5075344;28;19960;-80
2024/04/01 06:05:33;;;;;;;;;;;11.50;99.90;;;11.84;72.06;98206.84;5059217;28;19932;-80
2024/04/01 06:07:59;;;;;;;;;;;11.50;99.90;;;11.82;72.47;98204.47;5076889;28;19931;-80
2024/04/01 06:10:27;;;;;;;;;;;11.50;99.90;;;11.82;72.65;98204.47;5073926;28;19931;-80
2024/04/01 06:12:54;;;;;;;;;;;11.40;99.90;;;11.83;72.42;98202.59;5076152;28;19925;-81
2024/04/01 06:15:22;;;;;;;;;;;11.50;99.90;;;11.82;72.35;98204.47;5075688;28;19973;-80
2024/04/01 06:17:48;;;;;;;;;;;11.70;99.90;;;11.81;72.30;98197.50;5076132;28;20502;-80
2024/04/01 06:20:15;;;;;;;;;;;11.50;99.90;;;11.83;72.78;98198.06;5074210;28;19924;-80
2024/04/01 06:22:42;;;;;;;;;;;11.50;99.90;;;11.82;73.06;98199.13;5075948;28;19951;-80
2024/04/01 06:25:09;;;;;;;;;;;11.50;99.90;;;11.80;73.21;98201.22;5075727;28;19925;-80
2024/04/01 06:27:36;;;;;;;;;;;11.50;99.90;;;11.78;73.40;98198.06;5057618;28;19925;-80
2024/04/01 06:30:07;;;;;;;;;;;11.50;99.90;;;11.78;73.52;98197.25;5075273;28;20484;-80
2024/04/01 06:32:33;;;;;;;;;;;11.40;99.90;;;11.79;73.71;98196.97;5075344;28;19924;-81
2024/04/01 06:35:01;;;;;;;;;;;11.40;99.90;;;11.79;73.65;98198.84;5074525;28;19977;-80
2024/04/01 06:37:30;;;;;;;;;;;11.50;99.90;;;11.81;73.63;98199.38;5074751;28;19924;-85
2024/04/01 06:39:58;;;;;;;;;;;11.50;99.90;;;11.81;73.61;98197.50;5076845;28;20391;-83
2024/04/01 06:42:24;;;;;;;;;;;11.50;99.90;;;11.80;73.90;98195.09;5076186;28;19932;-83
2024/04/01 06:44:52;;;;;;;;;;;11.50;99.90;;;11.78;73.97;98195.38;5076961;28;19924;-83
2024/04/01 06:47:19;;;;;;;;;;;11.40;99.90;;;11.78;73.97;98198.06;5059455;28;19932;-84
2024/04/01 06:49:46;;;;;;;;;;;11.40;99.90;;;11.77;74.16;98201.00;5076515;28;19924;-83
2024/04/01 06:52:13;;;;;;;;;;;11.40;99.90;;;11.76;74.26;98194.88;5075855;28;19924;-83
2024/04/01 06:54:40;;;;;;;;;;;11.60;99.90;;;11.78;74.42;98197.25;5082387;28;19931;-83
2024/04/01 06:57:08;;;;;;;;;;;11.50;99.90;;;11.79;74.48;98204.97;5080122;28;19947;-82
2024/04/01 06:59:36;;;;;;;;;;;11.40;99.90;;;11.79;74.78;98204.19;5060729;28;19954;-83
2024/04/01 07:02:03;;;;;;;;;;;11.40;99.90;;;11.79;74.68;98198.84;5076780;28;20011;-82
2024/04/01 07:04:31;;;;;;;;;;;11.40;99.90;;;11.80;75.26;98209.25;5074254;28;19931;-82
2024/04/01 07:06:57;;;;;;;;;;;11.40;99.90;;;11.81;75.08;98210.88;5075898;28;20391;-82
2024/04/01 07:09:24;;;;;;;;;;;11.50;99.90;;;11.82;75.27;98204.47;5075649;28;19924;-81
2024/04/01 07:11:50;;;;;;;;;;;11.50;99.90;;;11.81;75.15;98215.41;5075447;28;19925;-80
2024/04/01 07:14:18;;;;;;;;;;;11.50;99.90;;;11.82;75.32;98215.16;5069088;28;19928;-79
2024/04/01 07:16:44;;;;;;;;;;;11.50;99.90;;;11.80;75.49;98213.78;5058833;28;19975;-80
2024/04/01 07:19:11;;;;;;;;;;;11.50;99.90;;;11.80;75.59;98225.25;5055246;28;19924;-79
2024/04/01 07:21:39;;;;;;;;;;;11.40;99.90;;;11.80;75.48;98225.25;5062652;28;20354;-80
2024/04/01 07:24:07;;;;;;;;;;;11.40;99.90;;;11.82;75.38;98225.84;5090513;28;19924;-80
2024/04/01 07:26:33;;;;;;;;;;;11.50;99.90;;;11.79;75.54;98233.56;5069720;28;19931;-80
2024/04/01 07:29:00;;;;;;;;;;;11.50;99.90;;;11.77;75.76;98238.38;5073822;28;19925;-80
2024/04/01 07:31:27;;;;;;;;;;;11.50;99.90;;;11.78;75.69;98235.44;5074285;28;19989;-80
2024/04/01 07:33:55;;;;;;;;;;;11.40;99.90;;;11.79;75.80;98245.03;5056178;28;19974;-80
2024/04/01 07:36:21;;;;;;;;;;;11.50;99.90;;;11.80;75.89;98249.31;5063932;28;19974;-80
2024/04/01 07:38:50;;;;;;;;;;;11.50;99.90;;;11.84;76.03;98249.59;5057467;28;19979;-80
2024/04/01 07:41:16;;;;;;;;;;;11.50;99.90;;;11.88;76.05;98247.19;5055033;28;19932;-80
2024/04/01 07:43:43;;;;;;;;;;;11.50;99.90;;;11.91;76.32;98242.09;5060556;28;19931;-80
2024/04/01 07:46:10;;;;;;;;;;;11.60;99.90;;;11.93;76.70;98244.47;5075674;28;19929;-80
2024/04/01 07:48:38;;;;;;;;;;;11.60;99.90;;;11.94;76.63;98238.84;5075432;28;19999;-80
2024/04/01 07:51:05;;;;;;;;;;;11.60;99.90;;;11.98;76.64;98247.13;5066926;28;19975;-80
2024/04/01 07:53:33;;;;;;;;;;;11.70;99.90;;;12.00;76.94;98255.66;5062185;28;20389;-80
2024/04/01 07:56:01;;;;;;;;;;;11.70;99.90;;;12.01;76.85;98254.59;5069899;28;19931;-80
2024/04/01 07:58:29;;;;;;;;;;;11.70;99.90;;;12.04;76.88;98254.84;5057640;28;19929;-80
2024/04/01 08:00:58;;;;;;;;;;;11.70;99.90;;;12.00;77.41;98256.44;5049908;28;19924;-80
2024/04/01 08:03:24;;;;;;;;;;;11.70;99.90;;;12.02;77.65;98250.84;5075898;28;20304;-79
2024/04/01 08:05:51;;;;;;;;;;;11.70;99.90;;;12.06;77.77;98246.56;5075137;28;19925;-80
2024/04/01 08:08:18;;;;;;;;;;;11.80;99.90;;;12.07;78.64;98243.59;5074460;28;20422;-80
2024/04/01 08:10:48;;;;;;;;;;;11.80;99.90;;;12.07;78.08;98258.84;5074384;28;19993;-80
2024/04/01 08:13:16;;;;;;;;;;;11.80;99.90;;;12.10;78.01;98266.28;5075776;28;19932;-80
2024/04/01 08:15:43;;;;;;;;;;;11.80;99.90;;;12.13;77.91;98279.09;5078724;28;19931;-79
2024/04/01 08:18:10;;;;;;;;;;;11.80;99.90;;;12.08;78.10;98271.91;5067108;28;20353;-80
2024/04/01 08:20:37;;;;;;;;;;;11.80;99.90;;;12.02;78.07;98280.25;5079029;28;19925;-80
2024/04/01 08:23:04;;;;;;;;;;;11.80;99.90;;;12.03;78.15;98284.50;5068886;28;19925;-80
2024/04/01 08:25:31;;;;;;;;;;;11.80;99.90;;;12.07;78.16;98288.22;5059636;28;19931;-80
2024/04/01 08:27:58;;;;;;;;;;;11.80;99.90;;;12.06;77.97;98291.97;5060049;28;20358;-80
2024/04/01 08:30:27;;;;;;;;;;;11.80;99.90;;;12.05;78.10;98298.38;5059027;28;19967;-80
2024/04/01 08:32:53;;;;;;;;;;;11.80;99.90;;;12.05;77.87;98293.03;5061192;28;19924;-80
2024/04/01 08:35:20;;;;;;;;;;;11.80;99.90;;;12.05;78.21;98293.03;5073114;28;20307;-80
2024/04/01 08:37:54;;;;;;;;;;;11.80;99.90;;;12.05;77.72;98298.38;5073202;28;19924;-80
2024/04/01 08:40:22;;;;;;;;;;;11.80;99.90;;;12.03;77.59;98306.69;5060174;28;20368;-80
2024/04/01 08:42:52;;;;;;;;;;;11.80;99.90;;;11.98;77.56;98313.91;5042132;28;19979;-80
2024/04/01 08:45:19;;;;;;;;;;;11.70;99.90;;;11.97;77.32;98318.47;5057875;28;19925;-80
2024/04/01 08:47:50;;;;;;;;;;;11.70;99.90;;;11.96;77.41;98321.41;5077028;28;19948;-80
2024/04/01 08:50:23;;;;;;;;;;;11.70;99.90;;;11.95;77.51;98312.56;5061401;28;19933;-80
2024/04/01 08:52:53;;;;;;;;;;;11.70;99.90;;;11.97;77.23;98313.13;5069082;28;19932;-80
2024/04/01 08:55:22;;;;;;;;;;;11.70;99.90;;;11.96;77.46;98300.03;5056174;28;19940;-80
2024/04/01 08:57:49;;;;;;;;;;;11.70;99.90;;;11.96;77.22;98302.72;5058923;28;20395;-80
2024/04/01 09:00:20;;;;;;;;;;;11.60;99.90;;;11.88;77.09;98300.59;5073494;28;20351;-80
2024/04/01 09:02:48;;;;;;;;;;;11.60;99.90;;;11.82;77.29;98300.63;5065172;28;19925;-80
2024/04/01 09:05:15;;;;;;;;;;;11.50;99.90;;;11.85;77.17;98305.41;5076411;28;19925;-80
2024/04/01 09:07:42;;;;;;;;;;;11.60;99.90;;;11.86;77.50;98308.91;5039508;28;20023;-80
2024/04/01 09:10:09;;;;;;;;;;;11.60;99.90;;;11.87;77.51;98301.69;5057121;28;19968;-80
2024/04/01 09:12:37;;;;;;;;;;;11.60;99.90;;;11.85;77.28;98315.28;5057658;28;19929;-80
2024/04/01 09:15:11;;;;;;;;;;;11.60;99.90;;;11.73;77.69;98309.44;5071831;28;19931;-80
2024/04/01 09:17:38;;;;;;;;;;;11.50;99.90;;;11.74;78.13;98317.16;5075659;28;19932;-79
2024/04/01 09:20:07;;;;;;;;;;;11.50;99.90;;;11.78;78.08;98314.75;5074222;28;19924;-78
2024/04/01 09:22:34;;;;;;;;;;;11.50;99.90;;;11.78;78.21;98320.91;5056284;28;19994;-79
2024/04/01 09:25:01;;;;;;;;;;;11.50;99.90;;;11.75;78.31;98318.75;5075588;28;20376;-79
2024/04/01 09:27:27;;;;;;;;;;;11.50;99.90;;;11.75;78.46;98318.75;5075635;28;19924;-79
2024/04/01 09:29:54;;;;;;;;;;;11.50;99.90;;;11.76;78.54;98324.91;5075350;28;19924;-79
2024/04/01 09:32:21;;;;;;;;;;;11.50;99.90;;;11.73;78.41;98322.78;5056005;28;20307;-79
2024/04/01 09:34:48;;;;;;;;;;;11.40;99.90;;;11.68;78.93;98336.94;5077508;28;19925;-80
2024/04/01 09:37:16;;;;;;;;;;;11.50;99.90;;;11.62;78.89;98339.91;5076205;28;20346;-80
2024/04/01 09:39:44;;;;;;;;;;;11.40;99.90;;;11.67;78.98;98343.38;5041944;28;19924;-80
2024/04/01 09:42:10;;;;;;;;;;;11.50;99.90;;;11.70;78.81;98350.81;5076212;28;19924;-81
2024/04/01 09:44:38;;;;;;;;;;;11.50;99.90;;;11.70;78.84;98347.34;5075258;28;19924;-79
2024/04/01 09:47:06;;;;;;;;;;;11.50;99.90;;;11.63;78.95;98349.50;5075957;28;20342;-81
2024/04/01 09:49:35;;;;;;;;;;;11.50;99.90;;;11.65;78.84;98356.16;5074696;28;19932;-80
2024/04/01 09:52:02;;;;;;;;;;;11.40;99.90;;;11.62;78.85;98354.06;5075426;28;20291;-81
2024/04/01 09:54:31;;;;;;;;;;;11.50;99.90;;;11.58;79.35;98358.31;5076913;28;20099;-81
2024/04/01 09:57:27;;;;;;;;;;;11.40;99.90;;;11.60;79.29;98369.53;5075074;28;19928;-81
2024/04/01 10:00:15;;;;;;;;;;;11.40;99.90;;;11.60;79.16;98366.84;5074665;28;19925;-81
2024/04/01 10:03:11;;;;;;;;;;;11.50;99.90;;;11.58;79.28;98375.16;5075234;28;20387;-81
2024/04/01 10:06:03;;;;;;;;;;;11.50;99.90;;;11.50;79.74;98378.34;5075231;28;20399;-80
2024/04/01 10:09:04;;;;;;;;;;;11.40;99.90;;;11.48;79.55;98385.03;5078707;28;19928;-80
2024/04/01 10:11:48;;;;;;;;;;;11.40;99.90;;;11.54;80.04;98379.41;5072517;28;19971;-79
2024/04/01 10:14:58;;;;;;;;;;;11.40;99.90;;;11.53;79.56;98382.38;5077849;28;20375;-79
2024/04/01 10:17:42;;;;;;;;;;;11.40;99.90;;;11.60;79.51;98388.22;5070966;28;19924;-79
2024/04/01 10:20:33;;;;;;;;;;;11.50;99.90;;;11.62;79.61;98393.31;5027762;28;20326;-79
2024/04/01 10:23:51;;;;;;;;;;;11.50;99.90;;;11.64;79.40;98393.81;5076479;28;20383;-79
2024/04/01 10:27:07;;;;;;;;;;;11.50;99.90;;;11.57;79.19;98396.78;5060087;28;19928;-79
2024/04/01 10:30:08;;;;;;;;;;;11.50;99.90;;;11.54;79.62;98402.66;5037242;28;19925;-79
2024/04/01 10:33:06;;;;;;;;;;;11.40;99.90;;;11.54;79.06;98405.31;5078356;28;19954;-79
2024/04/01 10:36:09;;;;;;;;;;;11.40;99.90;;;11.53;79.99;98411.72;5088211;28;19990;-79
2024/04/01 10:39:19;;;;;;;;;;;11.30;99.90;;;11.59;79.47;98419.47;5066809;28;19931;-79
2024/04/01 10:42:25;;;;;;;;;;;11.40;99.90;;;11.56;79.14;98424.53;5076597;28;20257;-79
2024/04/01 10:45:32;;;;;;;;;;;11.40;99.90;;;11.50;79.94;98426.41;5076114;28;20414;-79
2024/04/01 10:48:17;;;;;;;;;;;11.40;99.90;;;11.43;79.80;98435.75;5075779;28;19925;-79
2024/04/01 10:51:40;;;;;;;;;;;11.50;99.90;;;11.34;80.81;98430.16;5077305;28;19925;-79
2024/04/01 10:54:12;;;;;;;;;;;11.20;99.90;;;11.42;80.60;98434.13;5000098;28;20352;-79
2024/04/01 10:57:24;;;;;;;;;;;11.30;99.90;;;11.41;80.47;98432.53;5016893;28;19925;-79
2024/04/01 11:00:18;;;;;;;;;;;11.30;99.90;;;11.52;80.69;98418.94;5064512;28;19925;-79
2024/04/01 11:03:10;;;;;;;;;;;11.40;99.90;;;11.45;80.20;98425.59;5078595;28;19970;-79
2024/04/01 11:05:59;;;;;;;;;;;11.40;99.90;;;11.42;81.28;98424.28;5044280;28;19925;-79
2024/04/01 11:08:30;;;;;;;;;;;11.40;99.90;;;11.49;81.34;98438.16;5076747;28;19924;-79
2024/04/01 11:11:09;;;;;;;;;;;11.50;99.90;;;11.57;81.39;98428.81;5068319;28;19956;-80
2024/04/01 11:13:37;;;;;;;;;;;11.50;99.90;;;11.68;81.42;98432.28;5057687;28;19932;-79
2024/04/01 11:16:11;;;;;;;;;;;11.60;99.90;;;11.75;81.44;98440.81;5056910;28;19925;-81
2024/04/01 11:19:01;;;;;;;;;;;11.70;99.90;;;11.71;81.41;98445.06;5058702;28;20455;-79
2024/04/01 11:22:06;;;;;;;;;;;11.60;99.90;;;11.78;81.46;98449.09;5077781;28;19931;-79
2024/04/01 11:24:49;;;;;;;;;;;11.70;99.90;;;11.79;81.28;98450.69;5075705;28;19928;-79
2024/04/01 11:27:41;;;;;;;;;;;11.70;99.90;;;11.81;80.76;98459.25;5075872;28;19934;-79
2024/04/01 11:30:26;;;;;;;;;;;11.70;99.90;;;11.81;80.72;98453.91;5073743;28;20018;-79
2024/04/01 11:32:57;;;;;;;;;;;11.80;99.90;;;11.75;80.86;98454.16;5075512;28;19982;-78